sensor_id;sensor_type;location;lat;lon;timestamp;P1;durP1;ratioP1;P2;durP2;ratioP2
43088;SDS011;28709;52.030;5.652;2023-09-07T00:01:31;2.50;;;1.67;;
43088;SDS011;28709;52.030;5.652;2023-09-07T00:03:57;2.80;;;1.70;;
43088;SDS011;28709;52.030;5.652;2023-09-07T00:06:22;2.53;;;1.95;;
43088;SDS011;28709;52.030;5.652;2023-09-07T00:08:48;6.15;;;1.67;;
43088;SDS011;28709;52.030;5.652;2023-09-07T00:11:14;2.03;;;1.70;;
43088;SDS011;28709;52.030;5.652;2023-09-07T00:13:39;3.58;;;2.13;;
43088;SDS011;28709;52.030;5.652;2023-09-07T00:16:05;5.50;;;2.00;;
43088;SDS011;28709;52.030;5.652;2023-09-07T00:18:32;4.30;;;1.77;;
43088;SDS011;28709;52.030;5.652;2023-09-07T00:20:58;3.15;;;1.90;;
43088;SDS011;28709;52.030;5.652;2023-09-07T00:23:25;2.60;;;1.80;;
43088;SDS011;28709;52.030;5.652;2023-09-07T00:25:50;3.42;;;2.00;;
43088;SDS011;28709;52.030;5.652;2023-09-07T00:28:16;4.97;;;2.10;;
43088;SDS011;28709;52.030;5.652;2023-09-07T00:30:42;3.58;;;2.00;;
43088;SDS011;28709;52.030;5.652;2023-09-07T00:33:08;4.18;;;1.98;;
43088;SDS011;28709;52.030;5.652;2023-09-07T00:35:33;3.60;;;1.80;;
43088;SDS011;28709;52.030;5.652;2023-09-07T00:37:59;3.88;;;2.25;;
43088;SDS011;28709;52.030;5.652;2023-09-07T00:40:25;5.43;;;2.42;;
43088;SDS011;28709;52.030;5.652;2023-09-07T00:42:51;2.60;;;2.00;;
43088;SDS011;28709;52.030;5.652;2023-09-07T00:45:17;3.33;;;2.25;;
43088;SDS011;28709;52.030;5.652;2023-09-07T00:47:43;2.88;;;1.80;;
43088;SDS011;28709;52.030;5.652;2023-09-07T00:50:09;2.63;;;2.03;;
43088;SDS011;28709;52.030;5.652;2023-09-07T00:52:38;3.70;;;2.53;;
43088;SDS011;28709;52.030;5.652;2023-09-07T00:55:06;2.67;;;2.10;;
43088;SDS011;28709;52.030;5.652;2023-09-07T00:57:33;2.78;;;2.47;;
43088;SDS011;28709;52.030;5.652;2023-09-07T00:59:59;4.13;;;2.28;;
43088;SDS011;28709;52.030;5.652;2023-09-07T01:02:25;4.72;;;2.20;;
43088;SDS011;28709;52.030;5.652;2023-09-07T01:04:51;2.42;;;2.17;;
43088;SDS011;28709;52.030;5.652;2023-09-07T01:07:18;3.45;;;2.25;;
43088;SDS011;28709;52.030;5.652;2023-09-07T01:09:49;1.90;;;1.70;;
43088;SDS011;28709;52.030;5.652;2023-09-07T01:12:19;2.70;;;2.13;;
43088;SDS011;28709;52.030;5.652;2023-09-07T01:14:45;2.60;;;1.75;;
43088;SDS011;28709;52.030;5.652;2023-09-07T01:17:11;3.45;;;2.22;;
43088;SDS011;28709;52.030;5.652;2023-09-07T01:19:38;3.13;;;2.13;;
43088;SDS011;28709;52.030;5.652;2023-09-07T01:22:05;2.90;;;1.70;;
43088;SDS011;28709;52.030;5.652;2023-09-07T01:24:34;5.05;;;1.90;;
43088;SDS011;28709;52.030;5.652;2023-09-07T01:27:02;3.30;;;2.20;;
43088;SDS011;28709;52.030;5.652;2023-09-07T01:29:29;2.65;;;2.08;;
43088;SDS011;28709;52.030;5.652;2023-09-07T01:31:56;3.15;;;2.30;;
43088;SDS011;28709;52.030;5.652;2023-09-07T01:34:22;2.65;;;2.28;;
43088;SDS011;28709;52.030;5.652;2023-09-07T01:36:48;4.63;;;2.20;;
43088;SDS011;28709;52.030;5.652;2023-09-07T01:39:14;3.97;;;1.88;;
43088;SDS011;28709;52.030;5.652;2023-09-07T01:41:39;2.90;;;2.20;;
43088;SDS011;28709;52.030;5.652;2023-09-07T01:44:05;2.97;;;2.28;;
43088;SDS011;28709;52.030;5.652;2023-09-07T01:46:31;4.60;;;2.42;;
43088;SDS011;28709;52.030;5.652;2023-09-07T01:48:57;6.60;;;2.35;;
43088;SDS011;28709;52.030;5.652;2023-09-07T01:51:22;4.00;;;2.35;;
43088;SDS011;28709;52.030;5.652;2023-09-07T01:53:48;2.35;;;1.85;;
43088;SDS011;28709;52.030;5.652;2023-09-07T01:56:17;2.95;;;1.98;;
43088;SDS011;28709;52.030;5.652;2023-09-07T01:58:43;2.92;;;1.90;;
43088;SDS011;28709;52.030;5.652;2023-09-07T02:01:19;4.30;;;2.38;;
43088;SDS011;28709;52.030;5.652;2023-09-07T02:03:54;3.13;;;1.90;;
43088;SDS011;28709;52.030;5.652;2023-09-07T02:06:20;3.22;;;2.33;;
43088;SDS011;28709;52.030;5.652;2023-09-07T02:08:45;3.67;;;2.50;;
43088;SDS011;28709;52.030;5.652;2023-09-07T02:11:11;3.13;;;2.28;;
43088;SDS011;28709;52.030;5.652;2023-09-07T02:13:37;2.63;;;2.13;;
43088;SDS011;28709;52.030;5.652;2023-09-07T02:16:06;3.60;;;2.72;;
43088;SDS011;28709;52.030;5.652;2023-09-07T02:18:32;2.85;;;2.30;;
43088;SDS011;28709;52.030;5.652;2023-09-07T02:21:04;4.75;;;2.28;;
43088;SDS011;28709;52.030;5.652;2023-09-07T02:23:31;3.08;;;2.20;;
43088;SDS011;28709;52.030;5.652;2023-09-07T02:25:57;4.97;;;2.25;;
43088;SDS011;28709;52.030;5.652;2023-09-07T02:28:24;2.90;;;2.20;;
43088;SDS011;28709;52.030;5.652;2023-09-07T02:30:50;2.28;;;1.90;;
43088;SDS011;28709;52.030;5.652;2023-09-07T02:33:16;2.72;;;2.22;;
43088;SDS011;28709;52.030;5.652;2023-09-07T02:35:42;4.32;;;2.00;;
43088;SDS011;28709;52.030;5.652;2023-09-07T02:38:07;3.13;;;2.22;;
43088;SDS011;28709;52.030;5.652;2023-09-07T02:40:39;4.03;;;2.08;;
43088;SDS011;28709;52.030;5.652;2023-09-07T02:43:06;3.20;;;1.88;;
43088;SDS011;28709;52.030;5.652;2023-09-07T02:45:31;2.30;;;2.10;;
43088;SDS011;28709;52.030;5.652;2023-09-07T02:47:57;2.63;;;1.95;;
43088;SDS011;28709;52.030;5.652;2023-09-07T02:50:23;5.38;;;2.47;;
43088;SDS011;28709;52.030;5.652;2023-09-07T02:52:48;2.60;;;2.13;;
43088;SDS011;28709;52.030;5.652;2023-09-07T02:55:14;4.25;;;2.42;;
43088;SDS011;28709;52.030;5.652;2023-09-07T02:57:40;3.50;;;2.33;;
43088;SDS011;28709;52.030;5.652;2023-09-07T03:00:06;3.33;;;2.80;;
43088;SDS011;28709;52.030;5.652;2023-09-07T03:02:36;3.45;;;2.60;;
43088;SDS011;28709;52.030;5.652;2023-09-07T03:05:02;4.05;;;2.30;;
43088;SDS011;28709;52.030;5.652;2023-09-07T03:07:30;4.72;;;2.92;;
43088;SDS011;28709;52.030;5.652;2023-09-07T03:09:57;3.83;;;2.90;;
43088;SDS011;28709;52.030;5.652;2023-09-07T03:12:23;3.55;;;2.83;;
43088;SDS011;28709;52.030;5.652;2023-09-07T03:14:48;5.13;;;2.85;;
43088;SDS011;28709;52.030;5.652;2023-09-07T03:17:15;3.58;;;2.83;;
43088;SDS011;28709;52.030;5.652;2023-09-07T03:19:42;4.57;;;3.70;;
43088;SDS011;28709;52.030;5.652;2023-09-07T03:22:08;4.75;;;3.30;;
43088;SDS011;28709;52.030;5.652;2023-09-07T03:24:34;3.42;;;2.90;;
43088;SDS011;28709;52.030;5.652;2023-09-07T03:26:59;5.97;;;3.13;;
43088;SDS011;28709;52.030;5.652;2023-09-07T03:29:25;6.75;;;3.35;;
43088;SDS011;28709;52.030;5.652;2023-09-07T03:31:51;3.92;;;3.08;;
43088;SDS011;28709;52.030;5.652;2023-09-07T03:34:16;4.18;;;3.13;;
43088;SDS011;28709;52.030;5.652;2023-09-07T03:36:42;4.15;;;2.80;;
43088;SDS011;28709;52.030;5.652;2023-09-07T03:39:07;3.58;;;2.70;;
43088;SDS011;28709;52.030;5.652;2023-09-07T03:41:36;4.35;;;2.95;;
43088;SDS011;28709;52.030;5.652;2023-09-07T03:44:02;3.45;;;2.42;;
43088;SDS011;28709;52.030;5.652;2023-09-07T03:46:28;3.83;;;2.47;;
43088;SDS011;28709;52.030;5.652;2023-09-07T03:48:54;4.63;;;2.55;;
43088;SDS011;28709;52.030;5.652;2023-09-07T03:51:19;5.78;;;3.00;;
43088;SDS011;28709;52.030;5.652;2023-09-07T03:53:45;2.97;;;2.40;;
43088;SDS011;28709;52.030;5.652;2023-09-07T03:56:11;4.38;;;2.70;;
43088;SDS011;28709;52.030;5.652;2023-09-07T03:58:36;3.50;;;2.28;;
43088;SDS011;28709;52.030;5.652;2023-09-07T04:01:02;6.55;;;2.58;;
43088;SDS011;28709;52.030;5.652;2023-09-07T04:03:28;3.20;;;2.30;;
43088;SDS011;28709;52.030;5.652;2023-09-07T04:05:53;6.43;;;2.60;;
43088;SDS011;28709;52.030;5.652;2023-09-07T04:08:19;4.07;;;2.70;;
43088;SDS011;28709;52.030;5.652;2023-09-07T04:10:45;4.55;;;2.78;;
43088;SDS011;28709;52.030;5.652;2023-09-07T04:13:11;3.70;;;2.83;;
43088;SDS011;28709;52.030;5.652;2023-09-07T04:15:43;3.15;;;2.45;;
43088;SDS011;28709;52.030;5.652;2023-09-07T04:18:10;2.50;;;2.22;;
43088;SDS011;28709;52.030;5.652;2023-09-07T04:20:37;3.08;;;2.78;;
43088;SDS011;28709;52.030;5.652;2023-09-07T04:23:04;5.15;;;2.42;;
43088;SDS011;28709;52.030;5.652;2023-09-07T04:25:30;5.28;;;2.60;;
43088;SDS011;28709;52.030;5.652;2023-09-07T04:27:57;5.25;;;2.35;;
43088;SDS011;28709;52.030;5.652;2023-09-07T04:30:23;2.83;;;2.33;;
43088;SDS011;28709;52.030;5.652;2023-09-07T04:32:49;3.00;;;2.40;;
43088;SDS011;28709;52.030;5.652;2023-09-07T04:35:14;4.47;;;2.28;;
43088;SDS011;28709;52.030;5.652;2023-09-07T04:37:44;2.53;;;1.95;;
43088;SDS011;28709;52.030;5.652;2023-09-07T04:40:10;5.20;;;1.75;;
43088;SDS011;28709;52.030;5.652;2023-09-07T04:42:36;3.55;;;2.33;;
43088;SDS011;28709;52.030;5.652;2023-09-07T04:45:04;3.00;;;2.38;;
43088;SDS011;28709;52.030;5.652;2023-09-07T04:47:30;2.40;;;2.10;;
43088;SDS011;28709;52.030;5.652;2023-09-07T04:49:57;3.33;;;2.30;;
43088;SDS011;28709;52.030;5.652;2023-09-07T04:52:22;2.47;;;2.00;;
43088;SDS011;28709;52.030;5.652;2023-09-07T04:54:48;3.20;;;2.33;;
43088;SDS011;28709;52.030;5.652;2023-09-07T04:57:15;4.93;;;2.85;;
43088;SDS011;28709;52.030;5.652;2023-09-07T04:59:44;4.53;;;2.30;;
43088;SDS011;28709;52.030;5.652;2023-09-07T05:02:10;3.03;;;2.47;;
43088;SDS011;28709;52.030;5.652;2023-09-07T05:04:37;3.08;;;2.63;;
43088;SDS011;28709;52.030;5.652;2023-09-07T05:07:03;3.38;;;2.55;;
43088;SDS011;28709;52.030;5.652;2023-09-07T05:09:28;4.22;;;2.47;;
43088;SDS011;28709;52.030;5.652;2023-09-07T05:11:55;3.20;;;2.33;;
43088;SDS011;28709;52.030;5.652;2023-09-07T05:14:20;3.28;;;2.60;;
43088;SDS011;28709;52.030;5.652;2023-09-07T05:16:48;4.10;;;2.63;;
43088;SDS011;28709;52.030;5.652;2023-09-07T05:19:13;4.68;;;2.35;;
43088;SDS011;28709;52.030;5.652;2023-09-07T05:21:39;4.03;;;3.03;;
43088;SDS011;28709;52.030;5.652;2023-09-07T05:24:05;4.72;;;3.35;;
43088;SDS011;28709;52.030;5.652;2023-09-07T05:26:31;4.47;;;3.70;;
43088;SDS011;28709;52.030;5.652;2023-09-07T05:28:56;4.18;;;3.30;;
43088;SDS011;28709;52.030;5.652;2023-09-07T05:31:22;5.35;;;3.40;;
43088;SDS011;28709;52.030;5.652;2023-09-07T05:33:48;5.63;;;3.38;;
43088;SDS011;28709;52.030;5.652;2023-09-07T05:36:13;4.10;;;3.20;;
43088;SDS011;28709;52.030;5.652;2023-09-07T05:38:39;5.07;;;2.90;;
43088;SDS011;28709;52.030;5.652;2023-09-07T05:41:05;7.47;;;2.65;;
43088;SDS011;28709;52.030;5.652;2023-09-07T05:43:31;4.03;;;2.53;;
43088;SDS011;28709;52.030;5.652;2023-09-07T05:45:57;3.92;;;2.70;;
43088;SDS011;28709;52.030;5.652;2023-09-07T05:48:23;3.72;;;2.67;;
43088;SDS011;28709;52.030;5.652;2023-09-07T05:50:48;2.97;;;2.35;;
43088;SDS011;28709;52.030;5.652;2023-09-07T05:53:14;6.43;;;3.00;;
43088;SDS011;28709;52.030;5.652;2023-09-07T05:55:39;3.47;;;2.65;;
43088;SDS011;28709;52.030;5.652;2023-09-07T05:58:06;3.65;;;2.80;;
43088;SDS011;28709;52.030;5.652;2023-09-07T06:00:33;5.88;;;2.42;;
43088;SDS011;28709;52.030;5.652;2023-09-07T06:03:00;7.03;;;2.60;;
43088;SDS011;28709;52.030;5.652;2023-09-07T06:05:26;4.53;;;2.88;;
43088;SDS011;28709;52.030;5.652;2023-09-07T06:07:52;3.90;;;2.60;;
43088;SDS011;28709;52.030;5.652;2023-09-07T06:10:18;3.28;;;2.40;;
43088;SDS011;28709;52.030;5.652;2023-09-07T06:12:44;5.47;;;2.60;;
43088;SDS011;28709;52.030;5.652;2023-09-07T06:15:10;3.67;;;2.50;;
43088;SDS011;28709;52.030;5.652;2023-09-07T06:17:35;4.03;;;2.40;;
43088;SDS011;28709;52.030;5.652;2023-09-07T06:20:01;7.40;;;3.25;;
43088;SDS011;28709;52.030;5.652;2023-09-07T06:22:28;5.25;;;3.20;;
43088;SDS011;28709;52.030;5.652;2023-09-07T06:24:53;4.55;;;3.47;;
43088;SDS011;28709;52.030;5.652;2023-09-07T06:27:19;7.53;;;3.25;;
43088;SDS011;28709;52.030;5.652;2023-09-07T06:29:45;5.85;;;3.22;;
43088;SDS011;28709;52.030;5.652;2023-09-07T06:32:10;5.82;;;2.83;;
43088;SDS011;28709;52.030;5.652;2023-09-07T06:34:36;5.20;;;3.50;;
43088;SDS011;28709;52.030;5.652;2023-09-07T06:37:02;4.43;;;3.00;;
43088;SDS011;28709;52.030;5.652;2023-09-07T06:39:27;6.90;;;3.00;;
43088;SDS011;28709;52.030;5.652;2023-09-07T06:41:53;7.38;;;3.08;;
43088;SDS011;28709;52.030;5.652;2023-09-07T06:44:18;3.38;;;2.70;;
43088;SDS011;28709;52.030;5.652;2023-09-07T06:46:44;4.68;;;2.80;;
43088;SDS011;28709;52.030;5.652;2023-09-07T06:49:10;8.48;;;2.92;;
43088;SDS011;28709;52.030;5.652;2023-09-07T06:51:35;5.80;;;2.90;;
43088;SDS011;28709;52.030;5.652;2023-09-07T06:54:01;5.05;;;3.08;;
43088;SDS011;28709;52.030;5.652;2023-09-07T06:56:27;8.40;;;3.47;;
43088;SDS011;28709;52.030;5.652;2023-09-07T06:58:53;5.43;;;3.25;;
43088;SDS011;28709;52.030;5.652;2023-09-07T07:01:19;6.55;;;3.10;;
43088;SDS011;28709;52.030;5.652;2023-09-07T07:03:45;10.60;;;3.78;;
43088;SDS011;28709;52.030;5.652;2023-09-07T07:06:11;4.03;;;2.85;;
43088;SDS011;28709;52.030;5.652;2023-09-07T07:08:36;4.22;;;2.95;;
43088;SDS011;28709;52.030;5.652;2023-09-07T07:11:02;4.30;;;3.08;;
43088;SDS011;28709;52.030;5.652;2023-09-07T07:13:27;4.43;;;2.88;;
43088;SDS011;28709;52.030;5.652;2023-09-07T07:15:54;6.88;;;2.92;;
43088;SDS011;28709;52.030;5.652;2023-09-07T07:18:20;4.20;;;2.90;;
43088;SDS011;28709;52.030;5.652;2023-09-07T07:20:45;7.25;;;2.78;;
43088;SDS011;28709;52.030;5.652;2023-09-07T07:23:11;6.00;;;2.95;;
43088;SDS011;28709;52.030;5.652;2023-09-07T07:25:37;5.25;;;3.40;;
43088;SDS011;28709;52.030;5.652;2023-09-07T07:28:04;5.55;;;2.88;;
43088;SDS011;28709;52.030;5.652;2023-09-07T07:30:37;8.50;;;2.85;;
43088;SDS011;28709;52.030;5.652;2023-09-07T07:33:05;6.28;;;2.70;;
43088;SDS011;28709;52.030;5.652;2023-09-07T07:35:32;4.78;;;2.53;;
43088;SDS011;28709;52.030;5.652;2023-09-07T07:37:59;3.47;;;2.50;;
43088;SDS011;28709;52.030;5.652;2023-09-07T07:40:25;3.85;;;2.78;;
43088;SDS011;28709;52.030;5.652;2023-09-07T07:42:51;6.40;;;2.83;;
43088;SDS011;28709;52.030;5.652;2023-09-07T07:45:18;3.47;;;2.47;;
43088;SDS011;28709;52.030;5.652;2023-09-07T07:47:45;7.47;;;2.35;;
43088;SDS011;28709;52.030;5.652;2023-09-07T07:50:11;4.00;;;2.60;;
43088;SDS011;28709;52.030;5.652;2023-09-07T07:52:37;5.18;;;2.47;;
43088;SDS011;28709;52.030;5.652;2023-09-07T07:55:03;2.45;;;1.90;;
43088;SDS011;28709;52.030;5.652;2023-09-07T07:57:29;4.40;;;2.47;;
43088;SDS011;28709;52.030;5.652;2023-09-07T07:59:56;4.13;;;2.70;;
43088;SDS011;28709;52.030;5.652;2023-09-07T08:02:22;7.47;;;2.63;;
43088;SDS011;28709;52.030;5.652;2023-09-07T08:04:47;5.82;;;2.58;;
43088;SDS011;28709;52.030;5.652;2023-09-07T08:07:13;8.27;;;3.22;;
43088;SDS011;28709;52.030;5.652;2023-09-07T08:09:39;6.43;;;2.25;;
43088;SDS011;28709;52.030;5.652;2023-09-07T08:12:05;2.83;;;2.05;;
43088;SDS011;28709;52.030;5.652;2023-09-07T08:14:31;8.80;;;2.90;;
43088;SDS011;28709;52.030;5.652;2023-09-07T08:16:57;4.28;;;2.45;;
43088;SDS011;28709;52.030;5.652;2023-09-07T08:19:24;4.13;;;2.47;;
43088;SDS011;28709;52.030;5.652;2023-09-07T08:21:50;3.20;;;2.50;;
43088;SDS011;28709;52.030;5.652;2023-09-07T08:24:16;6.45;;;2.05;;
43088;SDS011;28709;52.030;5.652;2023-09-07T08:26:43;5.32;;;2.70;;
43088;SDS011;28709;52.030;5.652;2023-09-07T08:29:08;5.85;;;2.67;;
43088;SDS011;28709;52.030;5.652;2023-09-07T08:31:36;5.18;;;2.70;;
43088;SDS011;28709;52.030;5.652;2023-09-07T08:34:04;6.00;;;2.53;;
43088;SDS011;28709;52.030;5.652;2023-09-07T08:36:30;8.65;;;2.72;;
43088;SDS011;28709;52.030;5.652;2023-09-07T08:39:00;3.72;;;2.13;;
43088;SDS011;28709;52.030;5.652;2023-09-07T08:41:30;6.85;;;2.20;;
43088;SDS011;28709;52.030;5.652;2023-09-07T08:43:57;4.13;;;2.20;;
43088;SDS011;28709;52.030;5.652;2023-09-07T08:46:25;3.03;;;2.08;;
43088;SDS011;28709;52.030;5.652;2023-09-07T08:48:52;3.22;;;1.77;;
43088;SDS011;28709;52.030;5.652;2023-09-07T08:51:20;7.15;;;2.60;;
43088;SDS011;28709;52.030;5.652;2023-09-07T08:53:47;3.00;;;2.20;;
43088;SDS011;28709;52.030;5.652;2023-09-07T08:56:14;5.15;;;2.58;;
43088;SDS011;28709;52.030;5.652;2023-09-07T08:58:42;2.95;;;2.22;;
43088;SDS011;28709;52.030;5.652;2023-09-07T09:01:09;5.53;;;2.40;;
43088;SDS011;28709;52.030;5.652;2023-09-07T09:03:35;6.80;;;2.45;;
43088;SDS011;28709;52.030;5.652;2023-09-07T09:06:01;11.27;;;2.67;;
43088;SDS011;28709;52.030;5.652;2023-09-07T09:08:28;6.05;;;2.40;;
43088;SDS011;28709;52.030;5.652;2023-09-07T09:11:01;4.20;;;2.22;;
43088;SDS011;28709;52.030;5.652;2023-09-07T09:13:31;9.23;;;2.20;;
43088;SDS011;28709;52.030;5.652;2023-09-07T09:16:00;5.15;;;2.47;;
43088;SDS011;28709;52.030;5.652;2023-09-07T09:18:26;2.97;;;2.42;;
43088;SDS011;28709;52.030;5.652;2023-09-07T09:20:54;3.40;;;2.40;;
43088;SDS011;28709;52.030;5.652;2023-09-07T09:23:20;3.30;;;2.05;;
43088;SDS011;28709;52.030;5.652;2023-09-07T09:25:47;3.20;;;2.10;;
43088;SDS011;28709;52.030;5.652;2023-09-07T09:28:14;5.35;;;2.17;;
43088;SDS011;28709;52.030;5.652;2023-09-07T09:30:40;5.93;;;2.28;;
43088;SDS011;28709;52.030;5.652;2023-09-07T09:33:08;4.68;;;2.30;;
43088;SDS011;28709;52.030;5.652;2023-09-07T09:35:35;3.75;;;2.30;;
43088;SDS011;28709;52.030;5.652;2023-09-07T09:38:01;3.10;;;2.30;;
43088;SDS011;28709;52.030;5.652;2023-09-07T09:40:33;7.00;;;3.10;;
43088;SDS011;28709;52.030;5.652;2023-09-07T09:43:03;4.10;;;2.40;;
43088;SDS011;28709;52.030;5.652;2023-09-07T09:45:30;4.35;;;2.50;;
43088;SDS011;28709;52.030;5.652;2023-09-07T09:47:58;9.07;;;3.15;;
43088;SDS011;28709;52.030;5.652;2023-09-07T09:50:25;5.65;;;2.50;;
43088;SDS011;28709;52.030;5.652;2023-09-07T09:52:54;6.13;;;3.13;;
43088;SDS011;28709;52.030;5.652;2023-09-07T09:55:21;3.35;;;2.03;;
43088;SDS011;28709;52.030;5.652;2023-09-07T09:57:47;3.17;;;2.00;;
43088;SDS011;28709;52.030;5.652;2023-09-07T10:00:13;4.68;;;2.47;;
43088;SDS011;28709;52.030;5.652;2023-09-07T10:02:49;4.78;;;2.60;;
43088;SDS011;28709;52.030;5.652;2023-09-07T10:05:20;4.57;;;2.53;;
43088;SDS011;28709;52.030;5.652;2023-09-07T10:07:49;4.47;;;2.40;;
43088;SDS011;28709;52.030;5.652;2023-09-07T10:10:15;4.47;;;2.40;;
43088;SDS011;28709;52.030;5.652;2023-09-07T10:12:43;2.88;;;2.58;;
43088;SDS011;28709;52.030;5.652;2023-09-07T10:15:20;7.88;;;2.55;;
43088;SDS011;28709;52.030;5.652;2023-09-07T10:17:49;3.13;;;2.15;;
43088;SDS011;28709;52.030;5.652;2023-09-07T10:20:19;5.50;;;2.97;;
43088;SDS011;28709;52.030;5.652;2023-09-07T10:22:48;2.45;;;2.03;;
43088;SDS011;28709;52.030;5.652;2023-09-07T10:25:20;4.57;;;2.60;;
43088;SDS011;28709;52.030;5.652;2023-09-07T10:30:12;3.95;;;2.38;;
43088;SDS011;28709;52.030;5.652;2023-09-07T10:32:41;3.15;;;2.20;;
43088;SDS011;28709;52.030;5.652;2023-09-07T10:35:13;5.00;;;2.50;;
43088;SDS011;28709;52.030;5.652;2023-09-07T10:37:40;3.10;;;2.38;;
43088;SDS011;28709;52.030;5.652;2023-09-07T10:40:06;5.38;;;2.03;;
43088;SDS011;28709;52.030;5.652;2023-09-07T10:42:36;3.15;;;2.38;;
43088;SDS011;28709;52.030;5.652;2023-09-07T10:45:10;4.18;;;2.50;;
43088;SDS011;28709;52.030;5.652;2023-09-07T10:47:42;10.73;;;2.60;;
43088;SDS011;28709;52.030;5.652;2023-09-07T10:50:11;2.97;;;2.13;;
43088;SDS011;28709;52.030;5.652;2023-09-07T10:52:41;3.78;;;2.42;;
43088;SDS011;28709;52.030;5.652;2023-09-07T10:55:11;5.57;;;2.33;;
43088;SDS011;28709;52.030;5.652;2023-09-07T10:57:43;4.32;;;2.50;;
43088;SDS011;28709;52.030;5.652;2023-09-07T11:02:37;3.20;;;2.30;;
43088;SDS011;28709;52.030;5.652;2023-09-07T11:05:03;7.22;;;2.60;;
43088;SDS011;28709;52.030;5.652;2023-09-07T11:07:29;3.65;;;2.40;;
43088;SDS011;28709;52.030;5.652;2023-09-07T11:09:55;4.22;;;2.30;;
43088;SDS011;28709;52.030;5.652;2023-09-07T11:12:21;3.92;;;2.10;;
43088;SDS011;28709;52.030;5.652;2023-09-07T11:14:47;5.88;;;2.47;;
43088;SDS011;28709;52.030;5.652;2023-09-07T11:17:15;2.72;;;2.00;;
43088;SDS011;28709;52.030;5.652;2023-09-07T11:19:41;2.75;;;2.17;;
43088;SDS011;28709;52.030;5.652;2023-09-07T11:22:10;3.45;;;2.35;;
43088;SDS011;28709;52.030;5.652;2023-09-07T11:24:36;5.55;;;2.20;;
43088;SDS011;28709;52.030;5.652;2023-09-07T11:27:03;5.13;;;2.03;;
43088;SDS011;28709;52.030;5.652;2023-09-07T11:29:32;7.28;;;2.40;;
43088;SDS011;28709;52.030;5.652;2023-09-07T11:32:07;5.13;;;2.20;;
43088;SDS011;28709;52.030;5.652;2023-09-07T11:34:33;3.97;;;2.40;;
43088;SDS011;28709;52.030;5.652;2023-09-07T11:37:02;3.85;;;2.35;;
43088;SDS011;28709;52.030;5.652;2023-09-07T11:39:28;3.35;;;2.30;;
43088;SDS011;28709;52.030;5.652;2023-09-07T11:41:54;3.03;;;2.20;;
43088;SDS011;28709;52.030;5.652;2023-09-07T11:44:19;3.50;;;2.33;;
43088;SDS011;28709;52.030;5.652;2023-09-07T11:46:45;4.82;;;2.38;;
43088;SDS011;28709;52.030;5.652;2023-09-07T11:49:11;4.47;;;2.50;;
43088;SDS011;28709;52.030;5.652;2023-09-07T11:51:37;5.80;;;2.33;;
43088;SDS011;28709;52.030;5.652;2023-09-07T11:54:02;5.07;;;2.25;;
43088;SDS011;28709;52.030;5.652;2023-09-07T11:56:29;4.97;;;2.60;;
43088;SDS011;28709;52.030;5.652;2023-09-07T11:58:55;4.53;;;2.28;;
43088;SDS011;28709;52.030;5.652;2023-09-07T12:01:21;2.83;;;2.25;;
43088;SDS011;28709;52.030;5.652;2023-09-07T12:03:47;5.10;;;2.50;;
43088;SDS011;28709;52.030;5.652;2023-09-07T12:06:13;6.65;;;2.40;;
43088;SDS011;28709;52.030;5.652;2023-09-07T12:08:41;2.70;;;2.00;;
43088;SDS011;28709;52.030;5.652;2023-09-07T12:11:08;4.68;;;2.53;;
43088;SDS011;28709;52.030;5.652;2023-09-07T12:13:33;2.80;;;2.17;;
43088;SDS011;28709;52.030;5.652;2023-09-07T12:16:00;5.10;;;2.58;;
43088;SDS011;28709;52.030;5.652;2023-09-07T12:18:27;2.88;;;2.35;;
43088;SDS011;28709;52.030;5.652;2023-09-07T12:20:53;7.72;;;2.20;;
43088;SDS011;28709;52.030;5.652;2023-09-07T12:23:19;5.55;;;2.40;;
43088;SDS011;28709;52.030;5.652;2023-09-07T12:25:44;3.72;;;2.10;;
43088;SDS011;28709;52.030;5.652;2023-09-07T12:28:15;3.88;;;2.28;;
43088;SDS011;28709;52.030;5.652;2023-09-07T12:30:41;3.33;;;2.08;;
43088;SDS011;28709;52.030;5.652;2023-09-07T12:33:09;3.85;;;2.47;;
43088;SDS011;28709;52.030;5.652;2023-09-07T12:35:35;3.08;;;2.13;;
43088;SDS011;28709;52.030;5.652;2023-09-07T12:38:00;3.83;;;2.10;;
43088;SDS011;28709;52.030;5.652;2023-09-07T12:40:26;2.70;;;2.10;;
43088;SDS011;28709;52.030;5.652;2023-09-07T12:42:52;2.80;;;2.33;;
43088;SDS011;28709;52.030;5.652;2023-09-07T12:45:17;3.22;;;2.30;;
43088;SDS011;28709;52.030;5.652;2023-09-07T12:47:43;2.40;;;2.00;;
43088;SDS011;28709;52.030;5.652;2023-09-07T12:50:09;4.35;;;2.42;;
43088;SDS011;28709;52.030;5.652;2023-09-07T12:52:34;4.13;;;1.90;;
43088;SDS011;28709;52.030;5.652;2023-09-07T12:55:02;1.92;;;1.67;;
43088;SDS011;28709;52.030;5.652;2023-09-07T12:57:29;3.35;;;1.80;;
43088;SDS011;28709;52.030;5.652;2023-09-07T12:59:54;3.20;;;1.90;;
43088;SDS011;28709;52.030;5.652;2023-09-07T13:02:20;3.38;;;2.38;;
43088;SDS011;28709;52.030;5.652;2023-09-07T13:04:45;3.13;;;2.00;;
43088;SDS011;28709;52.030;5.652;2023-09-07T13:07:11;4.07;;;2.70;;
43088;SDS011;28709;52.030;5.652;2023-09-07T13:09:37;5.80;;;2.72;;
43088;SDS011;28709;52.030;5.652;2023-09-07T13:12:03;4.30;;;2.22;;
43088;SDS011;28709;52.030;5.652;2023-09-07T13:14:28;2.72;;;2.20;;
43088;SDS011;28709;52.030;5.652;2023-09-07T13:16:54;3.15;;;2.70;;
43088;SDS011;28709;52.030;5.652;2023-09-07T13:19:20;3.55;;;2.40;;
43088;SDS011;28709;52.030;5.652;2023-09-07T13:21:45;3.53;;;2.38;;
43088;SDS011;28709;52.030;5.652;2023-09-07T13:24:11;8.15;;;2.22;;
43088;SDS011;28709;52.030;5.652;2023-09-07T13:26:37;2.42;;;2.22;;
43088;SDS011;28709;52.030;5.652;2023-09-07T13:29:05;6.85;;;2.70;;
43088;SDS011;28709;52.030;5.652;2023-09-07T13:31:30;4.82;;;2.35;;
43088;SDS011;28709;52.030;5.652;2023-09-07T13:33:56;5.88;;;2.50;;
43088;SDS011;28709;52.030;5.652;2023-09-07T13:36:21;4.20;;;2.45;;
43088;SDS011;28709;52.030;5.652;2023-09-07T13:38:47;3.95;;;2.33;;
43088;SDS011;28709;52.030;5.652;2023-09-07T13:41:13;3.50;;;2.45;;
43088;SDS011;28709;52.030;5.652;2023-09-07T13:43:38;4.40;;;2.30;;
43088;SDS011;28709;52.030;5.652;2023-09-07T13:46:04;3.85;;;2.67;;
43088;SDS011;28709;52.030;5.652;2023-09-07T13:48:29;2.47;;;2.10;;
43088;SDS011;28709;52.030;5.652;2023-09-07T13:50:57;4.28;;;2.72;;
43088;SDS011;28709;52.030;5.652;2023-09-07T13:53:23;2.83;;;2.53;;
43088;SDS011;28709;52.030;5.652;2023-09-07T13:55:48;5.07;;;2.10;;
43088;SDS011;28709;52.030;5.652;2023-09-07T13:58:15;5.53;;;2.70;;
43088;SDS011;28709;52.030;5.652;2023-09-07T14:00:40;4.15;;;2.60;;
43088;SDS011;28709;52.030;5.652;2023-09-07T14:03:06;4.50;;;2.47;;
43088;SDS011;28709;52.030;5.652;2023-09-07T14:05:32;4.72;;;2.65;;
43088;SDS011;28709;52.030;5.652;2023-09-07T14:07:58;4.28;;;2.58;;
43088;SDS011;28709;52.030;5.652;2023-09-07T14:10:23;3.03;;;2.33;;
43088;SDS011;28709;52.030;5.652;2023-09-07T14:12:49;8.57;;;2.42;;
43088;SDS011;28709;52.030;5.652;2023-09-07T14:15:14;4.00;;;2.35;;
43088;SDS011;28709;52.030;5.652;2023-09-07T14:17:40;3.65;;;2.70;;
43088;SDS011;28709;52.030;5.652;2023-09-07T14:20:06;3.45;;;2.38;;
43088;SDS011;28709;52.030;5.652;2023-09-07T14:22:32;3.63;;;2.67;;
43088;SDS011;28709;52.030;5.652;2023-09-07T14:24:57;4.65;;;2.50;;
43088;SDS011;28709;52.030;5.652;2023-09-07T14:27:23;2.42;;;2.00;;
43088;SDS011;28709;52.030;5.652;2023-09-07T14:29:51;4.72;;;2.42;;
43088;SDS011;28709;52.030;5.652;2023-09-07T14:32:17;4.57;;;2.33;;
43088;SDS011;28709;52.030;5.652;2023-09-07T14:34:42;3.95;;;2.28;;
43088;SDS011;28709;52.030;5.652;2023-09-07T14:37:08;7.30;;;3.15;;
43088;SDS011;28709;52.030;5.652;2023-09-07T14:39:33;3.58;;;2.72;;
43088;SDS011;28709;52.030;5.652;2023-09-07T14:42:00;5.88;;;2.63;;
43088;SDS011;28709;52.030;5.652;2023-09-07T14:44:26;5.35;;;2.65;;
43088;SDS011;28709;52.030;5.652;2023-09-07T14:46:52;3.33;;;2.55;;
43088;SDS011;28709;52.030;5.652;2023-09-07T14:49:17;4.53;;;2.72;;